createdAt,value
2022-11-01T00:00:02.657Z,0
2022-11-01T00:15:02.976Z,0
2022-11-01T00:30:02.615Z,0
2022-11-01T00:45:02.846Z,0
2022-11-01T01:00:02.305Z,0
2022-11-01T01:15:02.733Z,0
2022-11-01T01:30:03.204Z,0
2022-11-01T01:45:02.679Z,0
2022-11-01T02:00:03.051Z,0
2022-11-01T02:15:02.672Z,0
2022-11-01T02:30:02.947Z,0
2022-11-01T02:45:02.390Z,0
2022-11-01T03:00:02.834Z,0
2022-11-01T03:15:02.258Z,0
2022-11-01T03:30:02.708Z,0
2022-11-01T03:45:03.133Z,0
2022-11-01T04:00:02.700Z,0
2022-11-01T04:15:02.995Z,0
2022-11-01T04:30:02.447Z,0
2022-11-01T04:45:02.903Z,0
2022-11-01T05:00:02.336Z,0
2022-11-01T05:15:02.775Z,0
2022-11-01T05:30:02.206Z,0
2022-11-01T05:45:02.728Z,0
2022-11-01T06:00:03.099Z,0
2022-11-01T06:15:02.731Z,0
2022-11-01T06:30:02.962Z,0
2022-11-01T06:45:02.384Z,18
2022-11-01T07:00:02.903Z,13
2022-11-01T07:15:02.268Z,26
2022-11-01T07:30:02.742Z,31
2022-11-01T07:45:03.130Z,25
2022-11-01T08:00:02.755Z,31
2022-11-01T08:15:03.009Z,44
2022-11-01T08:30:02.500Z,79
2022-11-01T08:45:02.887Z,222
2022-11-01T09:00:02.340Z,210
2022-11-01T09:15:02.785Z,259
2022-11-01T09:30:03.223Z,279
2022-11-01T09:45:02.776Z,292
2022-11-01T10:00:03.099Z,308
2022-11-01T10:15:02.527Z,313
2022-11-01T10:30:02.972Z,322
2022-11-01T10:45:02.401Z,326
2022-11-01T11:00:02.855Z,325
2022-11-01T11:15:02.284Z,323
2022-11-01T11:30:02.790Z,319
2022-11-01T11:45:03.139Z,314
2022-11-01T12:00:02.810Z,304
2022-11-01T12:15:03.012Z,293
2022-11-01T12:30:02.461Z,284
2022-11-01T12:45:02.916Z,264
2022-11-01T13:00:02.323Z,211
2022-11-01T13:15:02.826Z,237
2022-11-01T13:30:02.205Z,210
2022-11-01T14:00:03.065Z,155
2022-11-01T14:15:02.508Z,135
2022-11-01T14:30:02.958Z,116
2022-11-01T14:45:02.376Z,85
2022-11-01T15:00:02.847Z,45
2022-11-01T15:15:02.265Z,19
2022-11-01T15:30:02.851Z,11
2022-11-01T15:45:02.129Z,3
2022-11-01T16:00:02.577Z,0
2022-11-01T16:15:03.023Z,0
2022-11-01T16:30:02.454Z,0
2022-11-01T16:45:02.899Z,0
2022-11-01T17:00:02.401Z,0
2022-11-01T17:15:02.896Z,0
2022-11-01T17:30:02.183Z,0
2022-11-01T17:45:02.858Z,0
2022-11-01T18:00:02.073Z,0
2022-11-01T18:15:02.494Z,0
2022-11-01T18:30:02.947Z,0
2022-11-01T18:45:02.393Z,0
2022-11-01T19:00:02.899Z,0
2022-11-01T19:15:02.253Z,0
2022-11-01T19:30:02.897Z,0
2022-11-01T19:45:02.122Z,0
2022-11-01T20:00:02.578Z,0
2022-11-01T20:15:03.025Z,0
2022-11-01T20:30:02.465Z,0
2022-11-01T20:45:02.907Z,0
2022-11-01T21:00:02.327Z,0
2022-11-01T21:15:02.895Z,0
2022-11-01T21:30:02.199Z,0
2022-11-01T21:45:02.687Z,0
2022-11-01T22:00:03.105Z,0
2022-11-01T22:15:02.535Z,0
2022-11-01T22:30:02.996Z,0
2022-11-01T22:45:02.419Z,0
2022-11-01T23:00:03.008Z,0
2022-11-01T23:15:02.296Z,0
2022-11-01T23:30:02.943Z,0
2022-11-01T23:45:02.152Z,0
